sensor_id;sensor_type;location;lat;lon;timestamp;pressure;altitude;pressure_sealevel;temperature
73662;BMP280;61956;52.540;13.382;2022-11-30T00:01:50;83021.56;;;5.38
73662;BMP280;61956;52.540;13.382;2022-11-30T00:04:19;83438.31;;;5.40
73662;BMP280;61956;52.540;13.382;2022-11-30T00:06:48;83372.50;;;5.41
73662;BMP280;61956;52.540;13.382;2022-11-30T00:09:24;82986.41;;;5.37
73662;BMP280;61956;52.540;13.382;2022-11-30T00:11:53;82788.91;;;5.36
73662;BMP280;61956;52.540;13.382;2022-11-30T00:14:22;82874.53;;;5.35
73662;BMP280;61956;52.540;13.382;2022-11-30T00:16:51;83083.56;;;5.37
73662;BMP280;61956;52.540;13.382;2022-11-30T00:19:20;82619.56;;;5.34
73662;BMP280;61956;52.540;13.382;2022-11-30T00:21:49;82850.25;;;5.36
73662;BMP280;61956;52.540;13.382;2022-11-30T00:24:18;82678.34;;;5.34
73662;BMP280;61956;52.540;13.382;2022-11-30T00:26:50;82815.13;;;5.35
73662;BMP280;61956;52.540;13.382;2022-11-30T00:29:19;82928.22;;;5.35
73662;BMP280;61956;52.540;13.382;2022-11-30T00:31:48;83190.25;;;5.36
73662;BMP280;61956;52.540;13.382;2022-11-30T00:34:18;82889.88;;;5.35
73662;BMP280;61956;52.540;13.382;2022-11-30T00:36:47;82861.13;;;5.35
73662;BMP280;61956;52.540;13.382;2022-11-30T00:39:16;82813.19;;;5.33
73662;BMP280;61956;52.540;13.382;2022-11-30T00:41:45;82902.03;;;5.35
73662;BMP280;61956;52.540;13.382;2022-11-30T00:44:17;83013.88;;;5.34
73662;BMP280;61956;52.540;13.382;2022-11-30T00:46:47;83339.84;;;5.37
73662;BMP280;61956;52.540;13.382;2022-11-30T00:49:16;83020.25;;;5.35
73662;BMP280;61956;52.540;13.382;2022-11-30T00:51:45;83180.03;;;5.36
73662;BMP280;61956;52.540;13.382;2022-11-30T00:54:14;83450.44;;;5.38
73662;BMP280;61956;52.540;13.382;2022-11-30T00:56:44;83022.16;;;5.35
73662;BMP280;61956;52.540;13.382;2022-11-30T00:59:13;82963.38;;;5.35
73662;BMP280;61956;52.540;13.382;2022-11-30T01:01:45;83209.44;;;5.35
73662;BMP280;61956;52.540;13.382;2022-11-30T01:04:14;83260.56;;;5.35
73662;BMP280;61956;52.540;13.382;2022-11-30T01:06:43;82879.63;;;5.33
73662;BMP280;61956;52.540;13.382;2022-11-30T01:09:12;82278.41;;;5.28
73662;BMP280;61956;52.540;13.382;2022-11-30T01:11:41;82328.88;;;5.30
73662;BMP280;61956;52.540;13.382;2022-11-30T01:14:11;82594.03;;;5.29
73662;BMP280;61956;52.540;13.382;2022-11-30T01:16:40;82102.75;;;5.27
73662;BMP280;61956;52.540;13.382;2022-11-30T01:19:13;81795.53;;;5.24
73662;BMP280;61956;52.540;13.382;2022-11-30T01:21:42;81642.88;;;5.23
73662;BMP280;61956;52.540;13.382;2022-11-30T01:24:11;81650.53;;;5.23
73662;BMP280;61956;52.540;13.382;2022-11-30T01:26:40;82045.28;;;5.24
73662;BMP280;61956;52.540;13.382;2022-11-30T01:29:09;81641.63;;;5.22
73662;BMP280;61956;52.540;13.382;2022-11-30T01:31:39;81700.38;;;5.22
73662;BMP280;61956;52.540;13.382;2022-11-30T01:34:08;81487.06;;;5.21
73662;BMP280;61956;52.540;13.382;2022-11-30T01:36:40;80998.06;;;5.16
73662;BMP280;61956;52.540;13.382;2022-11-30T01:39:09;80821.91;;;5.14
73662;BMP280;61956;52.540;13.382;2022-11-30T01:41:38;81383.06;;;5.17
73662;BMP280;61956;52.540;13.382;2022-11-30T01:47:20;81651.88;;;5.20
73662;BMP280;61956;52.540;13.382;2022-11-30T01:49:57;81731.69;;;5.20
73662;BMP280;61956;52.540;13.382;2022-11-30T01:52:36;81669.13;;;5.19
73662;BMP280;61956;52.540;13.382;2022-11-30T01:55:15;81729.78;;;5.19
73662;BMP280;61956;52.540;13.382;2022-11-30T01:57:51;81400.31;;;5.17
73662;BMP280;61956;52.540;13.382;2022-11-30T02:00:25;81428.41;;;5.17
73662;BMP280;61956;52.540;13.382;2022-11-30T02:02:59;81234.31;;;5.15
73662;BMP280;61956;52.540;13.382;2022-11-30T02:05:32;81250.94;;;5.14
73662;BMP280;61956;52.540;13.382;2022-11-30T02:08:07;81236.25;;;5.14
73662;BMP280;61956;52.540;13.382;2022-11-30T02:10:39;81137.97;;;5.13
73662;BMP280;61956;52.540;13.382;2022-11-30T02:13:21;81591.91;;;5.15
73662;BMP280;61956;52.540;13.382;2022-11-30T02:16:18;81044.78;;;5.12
73662;BMP280;61956;52.540;13.382;2022-11-30T02:19:04;81243.97;;;5.12
73662;BMP280;61956;52.540;13.382;2022-11-30T02:21:49;81150.13;;;5.13
73662;BMP280;61956;52.540;13.382;2022-11-30T02:24:42;81574.03;;;5.15
73662;BMP280;61956;52.540;13.382;2022-11-30T02:27:29;81413.78;;;5.13
73662;BMP280;61956;52.540;13.382;2022-11-30T02:30:16;81851.16;;;5.16
73662;BMP280;61956;52.540;13.382;2022-11-30T02:32:50;82126.41;;;5.17
73662;BMP280;61956;52.540;13.382;2022-11-30T02:35:26;81774.50;;;5.16
73662;BMP280;61956;52.540;13.382;2022-11-30T02:38:00;81153.31;;;5.11
73662;BMP280;61956;52.540;13.382;2022-11-30T02:40:31;81906.09;;;5.15
73662;BMP280;61956;52.540;13.382;2022-11-30T02:43:02;81781.56;;;5.15
73662;BMP280;61956;52.540;13.382;2022-11-30T02:45:40;81349.31;;;5.13
73662;BMP280;61956;52.540;13.382;2022-11-30T02:48:18;81881.19;;;5.15
73662;BMP280;61956;52.540;13.382;2022-11-30T02:50:53;82440.69;;;5.17
73662;BMP280;61956;52.540;13.382;2022-11-30T02:53:28;83066.81;;;5.23
73662;BMP280;61956;52.540;13.382;2022-11-30T02:55:58;82545.44;;;5.19
73662;BMP280;61956;52.540;13.382;2022-11-30T02:58:27;82100.22;;;5.17
73662;BMP280;61956;52.540;13.382;2022-11-30T03:00:59;82051.69;;;5.17
73662;BMP280;61956;52.540;13.382;2022-11-30T03:03:28;82320.59;;;5.17
73662;BMP280;61956;52.540;13.382;2022-11-30T03:05:57;82049.78;;;5.15
73662;BMP280;61956;52.540;13.382;2022-11-30T03:08:26;82159.00;;;5.17
73662;BMP280;61956;52.540;13.382;2022-11-30T03:10:56;82139.19;;;5.15
73662;BMP280;61956;52.540;13.382;2022-11-30T03:13:29;81651.94;;;5.14
73662;BMP280;61956;52.540;13.382;2022-11-30T03:16:04;82015.31;;;5.14
73662;BMP280;61956;52.540;13.382;2022-11-30T03:18:35;81866.50;;;5.14
73662;BMP280;61956;52.540;13.382;2022-11-30T03:21:05;81912.47;;;5.14
73662;BMP280;61956;52.540;13.382;2022-11-30T03:23:35;82042.75;;;5.16
73662;BMP280;61956;52.540;13.382;2022-11-30T03:26:06;81954.66;;;5.13
73662;BMP280;61956;52.540;13.382;2022-11-30T03:28:36;81625.16;;;5.13
73662;BMP280;61956;52.540;13.382;2022-11-30T03:31:10;81554.28;;;5.11
73662;BMP280;61956;52.540;13.382;2022-11-30T03:33:40;81945.69;;;5.14
73662;BMP280;61956;52.540;13.382;2022-11-30T03:36:10;81841.00;;;5.12
73662;BMP280;61956;52.540;13.382;2022-11-30T03:38:40;81448.94;;;5.11
73662;BMP280;61956;52.540;13.382;2022-11-30T03:41:11;81401.06;;;5.09
73662;BMP280;61956;52.540;13.382;2022-11-30T03:43:41;81380.03;;;5.08
73662;BMP280;61956;52.540;13.382;2022-11-30T03:46:13;81055.13;;;5.06
73662;BMP280;61956;52.540;13.382;2022-11-30T03:48:45;81155.97;;;5.07
73662;BMP280;61956;52.540;13.382;2022-11-30T03:51:14;81473.88;;;5.08
73662;BMP280;61956;52.540;13.382;2022-11-30T03:53:44;81667.97;;;5.10
73662;BMP280;61956;52.540;13.382;2022-11-30T03:56:13;81410.66;;;5.08
73662;BMP280;61956;52.540;13.382;2022-11-30T03:58:42;81258.13;;;5.07
73662;BMP280;61956;52.540;13.382;2022-11-30T04:01:16;81198.75;;;5.06
73662;BMP280;61956;52.540;13.382;2022-11-30T04:03:47;81179.63;;;5.05
73662;BMP280;61956;52.540;13.382;2022-11-30T04:06:18;81449.66;;;5.07
73662;BMP280;61956;52.540;13.382;2022-11-30T04:08:48;81874.22;;;5.10
73662;BMP280;61956;52.540;13.382;2022-11-30T04:11:18;81035.38;;;5.04
73662;BMP280;61956;52.540;13.382;2022-11-30T04:13:47;80952.41;;;5.03
73662;BMP280;61956;52.540;13.382;2022-11-30T04:16:19;80994.56;;;5.02
73662;BMP280;61956;52.540;13.382;2022-11-30T04:18:48;81113.88;;;5.04
73662;BMP280;61956;52.540;13.382;2022-11-30T04:21:17;80787.16;;;5.02
73662;BMP280;61956;52.540;13.382;2022-11-30T04:23:46;80415.78;;;4.99
73662;BMP280;61956;52.540;13.382;2022-11-30T04:26:15;80372.41;;;4.99
73662;BMP280;61956;52.540;13.382;2022-11-30T04:28:45;80366.06;;;4.98
73662;BMP280;61956;52.540;13.382;2022-11-30T04:31:14;80343.69;;;4.98
73662;BMP280;61956;52.540;13.382;2022-11-30T04:33:46;80754.00;;;5.00
73662;BMP280;61956;52.540;13.382;2022-11-30T04:36:18;80668.50;;;4.99
73662;BMP280;61956;52.540;13.382;2022-11-30T04:38:47;80426.06;;;4.97
73662;BMP280;61956;52.540;13.382;2022-11-30T04:41:17;80770.00;;;4.98
73662;BMP280;61956;52.540;13.382;2022-11-30T04:43:46;80541.56;;;4.97
73662;BMP280;61956;52.540;13.382;2022-11-30T04:46:15;80706.19;;;4.98
73662;BMP280;61956;52.540;13.382;2022-11-30T04:48:47;80957.63;;;4.99
73662;BMP280;61956;52.540;13.382;2022-11-30T04:51:16;81008.00;;;5.01
73662;BMP280;61956;52.540;13.382;2022-11-30T04:53:45;80371.88;;;4.96
73662;BMP280;61956;52.540;13.382;2022-11-30T04:56:14;80045.25;;;4.94
73662;BMP280;61956;52.540;13.382;2022-11-30T04:58:43;80043.41;;;4.93
73662;BMP280;61956;52.540;13.382;2022-11-30T05:01:13;80011.53;;;4.92
73662;BMP280;61956;52.540;13.382;2022-11-30T05:03:42;80240.53;;;4.93
73662;BMP280;61956;52.540;13.382;2022-11-30T05:06:13;80467.00;;;4.95
73662;BMP280;61956;52.540;13.382;2022-11-30T05:08:42;80265.44;;;4.93
73662;BMP280;61956;52.540;13.382;2022-11-30T05:11:12;80144.22;;;4.92
73662;BMP280;61956;52.540;13.382;2022-11-30T05:13:41;80275.03;;;4.92
73662;BMP280;61956;52.540;13.382;2022-11-30T05:16:10;79753.28;;;4.89
73662;BMP280;61956;52.540;13.382;2022-11-30T05:18:39;79498.84;;;4.88
73662;BMP280;61956;52.540;13.382;2022-11-30T05:21:08;79406.50;;;4.85
73662;BMP280;61956;52.540;13.382;2022-11-30T05:23:40;79532.72;;;4.86
73662;BMP280;61956;52.540;13.382;2022-11-30T05:26:11;79327.41;;;4.85
73662;BMP280;61956;52.540;13.382;2022-11-30T05:28:40;79701.72;;;4.87
73662;BMP280;61956;52.540;13.382;2022-11-30T05:31:09;79901.38;;;4.87
73662;BMP280;61956;52.540;13.382;2022-11-30T05:33:38;80236.19;;;4.90
73662;BMP280;61956;52.540;13.382;2022-11-30T05:36:08;80597.91;;;4.91
73662;BMP280;61956;52.540;13.382;2022-11-30T05:38:40;80608.13;;;4.91
73662;BMP280;61956;52.540;13.382;2022-11-30T05:41:09;80581.31;;;4.92
73662;BMP280;61956;52.540;13.382;2022-11-30T05:43:38;81047.09;;;4.95
73662;BMP280;61956;52.540;13.382;2022-11-30T05:46:09;81131.97;;;4.96
73662;BMP280;61956;52.540;13.382;2022-11-30T05:48:38;80996.06;;;4.93
73662;BMP280;61956;52.540;13.382;2022-11-30T05:51:08;80720.38;;;4.93
73662;BMP280;61956;52.540;13.382;2022-11-30T05:53:43;80912.44;;;4.94
73662;BMP280;61956;52.540;13.382;2022-11-30T05:56:13;80923.28;;;4.94
73662;BMP280;61956;52.540;13.382;2022-11-30T05:58:43;80925.91;;;4.92
73662;BMP280;61956;52.540;13.382;2022-11-30T06:01:20;80827.59;;;4.93
73662;BMP280;61956;52.540;13.382;2022-11-30T06:03:51;81109.63;;;4.94
73662;BMP280;61956;52.540;13.382;2022-11-30T06:06:21;80835.88;;;4.94
73662;BMP280;61956;52.540;13.382;2022-11-30T06:08:53;81356.00;;;4.95
73662;BMP280;61956;52.540;13.382;2022-11-30T06:11:23;82124.56;;;5.01
73662;BMP280;61956;52.540;13.382;2022-11-30T06:13:52;81815.56;;;4.99
73662;BMP280;61956;52.540;13.382;2022-11-30T06:16:21;81870.47;;;5.00
73662;BMP280;61956;52.540;13.382;2022-11-30T06:18:50;81581.91;;;4.98
73662;BMP280;61956;52.540;13.382;2022-11-30T06:21:20;81482.97;;;4.97
73662;BMP280;61956;52.540;13.382;2022-11-30T06:23:49;82176.31;;;5.02
73662;BMP280;61956;52.540;13.382;2022-11-30T06:26:22;81218.75;;;4.96
73662;BMP280;61956;52.540;13.382;2022-11-30T06:28:51;81599.16;;;4.98
73662;BMP280;61956;52.540;13.382;2022-11-30T06:31:20;81419.78;;;4.97
73662;BMP280;61956;52.540;13.382;2022-11-30T06:33:49;81434.47;;;4.97
73662;BMP280;61956;52.540;13.382;2022-11-30T06:36:22;81778.53;;;4.98
73662;BMP280;61956;52.540;13.382;2022-11-30T06:38:51;81650.84;;;4.98
73662;BMP280;61956;52.540;13.382;2022-11-30T06:41:23;81667.47;;;4.97
73662;BMP280;61956;52.540;13.382;2022-11-30T06:43:52;81652.78;;;4.98
73662;BMP280;61956;52.540;13.382;2022-11-30T06:46:21;81595.31;;;4.97
73662;BMP280;61956;52.540;13.382;2022-11-30T06:48:52;82077.97;;;5.01
73662;BMP280;61956;52.540;13.382;2022-11-30T06:51:21;81989.88;;;5.00
73662;BMP280;61956;52.540;13.382;2022-11-30T06:53:50;82168.00;;;5.01
73662;BMP280;61956;52.540;13.382;2022-11-30T06:56:19;82012.84;;;5.00
73662;BMP280;61956;52.540;13.382;2022-11-30T06:58:51;81838.56;;;4.99
73662;BMP280;61956;52.540;13.382;2022-11-30T07:01:20;81713.44;;;4.97
73662;BMP280;61956;52.540;13.382;2022-11-30T07:03:49;81917.72;;;4.99
73662;BMP280;61956;52.540;13.382;2022-11-30T07:06:19;82330.19;;;5.02
73662;BMP280;61956;52.540;13.382;2022-11-30T07:08:48;82130.97;;;5.00
73662;BMP280;61956;52.540;13.382;2022-11-30T07:11:17;82332.13;;;5.02
73662;BMP280;61956;52.540;13.382;2022-11-30T07:13:46;82263.16;;;5.02
73662;BMP280;61956;52.540;13.382;2022-11-30T07:16:18;82037.09;;;5.01
73662;BMP280;61956;52.540;13.382;2022-11-30T07:18:47;82497.50;;;5.03
73662;BMP280;61956;52.540;13.382;2022-11-30T07:21:16;82890.97;;;5.05
73662;BMP280;61956;52.540;13.382;2022-11-30T07:23:45;83335.66;;;5.10
73662;BMP280;61956;52.540;13.382;2022-11-30T07:26:27;82913.34;;;5.07
73662;BMP280;61956;52.540;13.382;2022-11-30T07:28:56;82631.66;;;5.04
73662;BMP280;61956;52.540;13.382;2022-11-30T07:31:29;82758.09;;;5.05
73662;BMP280;61956;52.540;13.382;2022-11-30T07:34:03;82913.97;;;5.05
73662;BMP280;61956;52.540;13.382;2022-11-30T07:36:34;82927.38;;;5.06
73662;BMP280;61956;52.540;13.382;2022-11-30T07:39:04;83163.13;;;5.08
73662;BMP280;61956;52.540;13.382;2022-11-30T07:41:33;83131.81;;;5.08
73662;BMP280;61956;52.540;13.382;2022-11-30T07:44:03;83408.50;;;5.11
73662;BMP280;61956;52.540;13.382;2022-11-30T07:46:36;83605.94;;;5.11
73662;BMP280;61956;52.540;13.382;2022-11-30T07:49:08;83899.31;;;5.15
73662;BMP280;61956;52.540;13.382;2022-11-30T07:51:37;84226.59;;;5.17
73662;BMP280;61956;52.540;13.382;2022-11-30T07:54:07;84121.09;;;5.16
73662;BMP280;61956;52.540;13.382;2022-11-30T07:56:36;83949.81;;;5.16
73662;BMP280;61956;52.540;13.382;2022-11-30T07:59:05;83931.28;;;5.16
73662;BMP280;61956;52.540;13.382;2022-11-30T08:01:37;84616.63;;;5.20
73662;BMP280;61956;52.540;13.382;2022-11-30T08:04:06;84876.31;;;5.23
73662;BMP280;61956;52.540;13.382;2022-11-30T08:06:38;84615.38;;;5.21
73662;BMP280;61956;52.540;13.382;2022-11-30T08:09:10;84903.78;;;5.22
73662;BMP280;61956;52.540;13.382;2022-11-30T08:11:40;85313.88;;;5.27
73662;BMP280;61956;52.540;13.382;2022-11-30T08:14:10;84842.50;;;5.24
73662;BMP280;61956;52.540;13.382;2022-11-30T08:16:43;84758.09;;;5.24
73662;BMP280;61956;52.540;13.382;2022-11-30T08:19:13;85728.41;;;5.29
73662;BMP280;61956;52.540;13.382;2022-11-30T08:21:42;86276.22;;;5.33
73662;BMP280;61956;52.540;13.382;2022-11-30T08:24:12;86173.97;;;5.35
73662;BMP280;61956;52.540;13.382;2022-11-30T08:26:41;86209.13;;;5.35
73662;BMP280;61956;52.540;13.382;2022-11-30T08:29:10;86296.94;;;5.37
73662;BMP280;61956;52.540;13.382;2022-11-30T08:31:42;86222.06;;;5.37
73662;BMP280;61956;52.540;13.382;2022-11-30T08:34:12;86123.47;;;5.36
73662;BMP280;61956;52.540;13.382;2022-11-30T08:36:41;85885.47;;;5.36
73662;BMP280;61956;52.540;13.382;2022-11-30T08:39:11;86249.66;;;5.38
73662;BMP280;61956;52.540;13.382;2022-11-30T08:41:40;86913.59;;;5.43
73662;BMP280;61956;52.540;13.382;2022-11-30T08:44:09;87117.22;;;5.44
73662;BMP280;61956;52.540;13.382;2022-11-30T08:46:39;87678.31;;;5.48
73662;BMP280;61956;52.540;13.382;2022-11-30T08:49:10;88408.91;;;5.54
73662;BMP280;61956;52.540;13.382;2022-11-30T08:51:39;87754.13;;;5.51
73662;BMP280;61956;52.540;13.382;2022-11-30T08:54:09;87843.94;;;5.53
73662;BMP280;61956;52.540;13.382;2022-11-30T08:56:38;87729.88;;;5.52
73662;BMP280;61956;52.540;13.382;2022-11-30T08:59:07;87899.13;;;5.54
73662;BMP280;61956;52.540;13.382;2022-11-30T09:01:38;88802.94;;;5.61
73662;BMP280;61956;52.540;13.382;2022-11-30T09:04:10;88633.09;;;5.61
73662;BMP280;61956;52.540;13.382;2022-11-30T09:06:40;89129.97;;;5.64
73662;BMP280;61956;52.540;13.382;2022-11-30T09:09:09;88828.75;;;5.63
73662;BMP280;61956;52.540;13.382;2022-11-30T09:11:38;88693.59;;;5.64
73662;BMP280;61956;52.540;13.382;2022-11-30T09:14:11;88895.56;;;5.65
73662;BMP280;61956;52.540;13.382;2022-11-30T09:16:40;89217.56;;;5.68
73662;BMP280;61956;52.540;13.382;2022-11-30T09:19:12;89644.03;;;5.71
73662;BMP280;61956;52.540;13.382;2022-11-30T09:21:41;89944.97;;;5.73
73662;BMP280;61956;52.540;13.382;2022-11-30T09:24:10;89816.28;;;5.75
73662;BMP280;61956;52.540;13.382;2022-11-30T09:26:39;89813.03;;;5.74
73662;BMP280;61956;52.540;13.382;2022-11-30T09:29:08;90439.50;;;5.81
73662;BMP280;61956;52.540;13.382;2022-11-30T09:31:38;90922.28;;;5.85
73662;BMP280;61956;52.540;13.382;2022-11-30T09:34:12;91252.41;;;5.88
73662;BMP280;61956;52.540;13.382;2022-11-30T09:36:42;91573.03;;;5.91
73662;BMP280;61956;52.540;13.382;2022-11-30T09:39:13;91195.81;;;5.91
73662;BMP280;61956;52.540;13.382;2022-11-30T09:42:10;91716.59;;;5.95
73662;BMP280;61956;52.540;13.382;2022-11-30T09:44:57;91335.34;;;5.94
73662;BMP280;61956;52.540;13.382;2022-11-30T09:48:00;90924.53;;;5.92
73662;BMP280;61956;52.540;13.382;2022-11-30T09:50:46;90923.41;;;5.93
73662;BMP280;61956;52.540;13.382;2022-11-30T09:53:21;90580.06;;;5.91
73662;BMP280;61956;52.540;13.382;2022-11-30T09:55:55;90749.63;;;5.93
73662;BMP280;61956;52.540;13.382;2022-11-30T09:58:34;90796.50;;;5.94
73662;BMP280;61956;52.540;13.382;2022-11-30T10:01:15;90959.84;;;5.97
73662;BMP280;61956;52.540;13.382;2022-11-30T10:03:48;91262.25;;;5.98
73662;BMP280;61956;52.540;13.382;2022-11-30T10:06:27;92042.00;;;6.04
73662;BMP280;61956;52.540;13.382;2022-11-30T10:09:24;92497.13;;;6.08
73662;BMP280;61956;52.540;13.382;2022-11-30T10:12:04;92307.81;;;6.08
73662;BMP280;61956;52.540;13.382;2022-11-30T10:14:56;92255.31;;;6.09
73662;BMP280;61956;52.540;13.382;2022-11-30T10:17:43;92594.94;;;6.13
73662;BMP280;61956;52.540;13.382;2022-11-30T10:20:49;93037.41;;;6.17
73662;BMP280;61956;52.540;13.382;2022-11-30T10:23:40;93663.84;;;6.22
73662;BMP280;61956;52.540;13.382;2022-11-30T10:26:24;93634.09;;;6.25
73662;BMP280;61956;52.540;13.382;2022-11-30T10:29:04;94280.28;;;6.31
73662;BMP280;61956;52.540;13.382;2022-11-30T10:31:46;94346.03;;;6.32
73662;BMP280;61956;52.540;13.382;2022-11-30T10:34:20;94734.97;;;6.36
73662;BMP280;61956;52.540;13.382;2022-11-30T10:36:54;95113.03;;;6.40
73662;BMP280;61956;52.540;13.382;2022-11-30T10:39:38;95265.91;;;6.42
73662;BMP280;61956;52.540;13.382;2022-11-30T10:42:17;95359.69;;;6.45
73662;BMP280;61956;52.540;13.382;2022-11-30T10:44:58;95781.59;;;6.49
73662;BMP280;61956;52.540;13.382;2022-11-30T10:47:33;95670.66;;;6.50
73662;BMP280;61956;52.540;13.382;2022-11-30T10:50:06;95615.25;;;6.53
73662;BMP280;61956;52.540;13.382;2022-11-30T10:52:44;96468.22;;;6.59
73662;BMP280;61956;52.540;13.382;2022-11-30T10:55:21;95844.31;;;6.56
73662;BMP280;61956;52.540;13.382;2022-11-30T10:57:56;96824.78;;;6.65
73662;BMP280;61956;52.540;13.382;2022-11-30T11:00:31;96180.47;;;6.61
73662;BMP280;61956;52.540;13.382;2022-11-30T11:03:00;95059.72;;;6.56
73662;BMP280;61956;52.540;13.382;2022-11-30T11:05:30;96174.66;;;6.64
73662;BMP280;61956;52.540;13.382;2022-11-30T11:08:01;96735.63;;;6.69
73662;BMP280;61956;52.540;13.382;2022-11-30T11:10:48;95935.06;;;6.65
73662;BMP280;61956;52.540;13.382;2022-11-30T11:13:19;95653.09;;;6.64
73662;BMP280;61956;52.540;13.382;2022-11-30T11:16:05;96181.19;;;6.70
73662;BMP280;61956;52.540;13.382;2022-11-30T11:18:38;95978.94;;;6.69
73662;BMP280;61956;52.540;13.382;2022-11-30T11:21:22;96199.66;;;6.72
73662;BMP280;61956;52.540;13.382;2022-11-30T11:23:53;96062.50;;;6.72
73662;BMP280;61956;52.540;13.382;2022-11-30T11:26:29;95381.97;;;6.69
73662;BMP280;61956;52.540;13.382;2022-11-30T11:28:59;95336.72;;;6.68
73662;BMP280;61956;52.540;13.382;2022-11-30T11:31:34;94957.03;;;6.67
73662;BMP280;61956;52.540;13.382;2022-11-30T11:34:26;94952.31;;;6.69
73662;BMP280;61956;52.540;13.382;2022-11-30T11:37:09;95248.16;;;6.69
73662;BMP280;61956;52.540;13.382;2022-11-30T11:39:55;95572.16;;;6.74
73662;BMP280;61956;52.540;13.382;2022-11-30T11:42:31;96300.31;;;6.79
73662;BMP280;61956;52.540;13.382;2022-11-30T11:45:04;96370.25;;;6.81
73662;BMP280;61956;52.540;13.382;2022-11-30T11:47:43;96053.63;;;6.81
73662;BMP280;61956;52.540;13.382;2022-11-30T11:50:25;95638.81;;;6.79
73662;BMP280;61956;52.540;13.382;2022-11-30T11:53:13;95032.91;;;6.77
73662;BMP280;61956;52.540;13.382;2022-11-30T11:55:59;94917.50;;;6.75
73662;BMP280;61956;52.540;13.382;2022-11-30T11:58:44;94834.44;;;6.75
73662;BMP280;61956;52.540;13.382;2022-11-30T12:01:26;94307.44;;;6.73
73662;BMP280;61956;52.540;13.382;2022-11-30T12:04:15;94543.75;;;6.75
73662;BMP280;61956;52.540;13.382;2022-11-30T12:07:12;94645.50;;;6.76
73662;BMP280;61956;52.540;13.382;2022-11-30T12:09:56;95213.09;;;6.80
73662;BMP280;61956;52.540;13.382;2022-11-30T12:12:32;94761.34;;;6.79
73662;BMP280;61956;52.540;13.382;2022-11-30T12:15:08;93307.06;;;6.70
73662;BMP280;61956;52.540;13.382;2022-11-30T12:17:47;93250.88;;;6.68
73662;BMP280;61956;52.540;13.382;2022-11-30T12:20:31;93308.16;;;6.68
73662;BMP280;61956;52.540;13.382;2022-11-30T12:23:21;93520.09;;;6.71
73662;BMP280;61956;52.540;13.382;2022-11-30T12:26:07;91943.47;;;6.61
73662;BMP280;61956;52.540;13.382;2022-11-30T12:28:51;91646.97;;;6.59
73662;BMP280;61956;52.540;13.382;2022-11-30T12:31:44;90432.16;;;6.50
73662;BMP280;61956;52.540;13.382;2022-11-30T12:34:33;90657.66;;;6.51
73662;BMP280;61956;52.540;13.382;2022-11-30T12:37:20;90694.78;;;6.50
73662;BMP280;61956;52.540;13.382;2022-11-30T12:40:02;89950.16;;;6.44
73662;BMP280;61956;52.540;13.382;2022-11-30T12:42:53;89040.91;;;6.38
73662;BMP280;61956;52.540;13.382;2022-11-30T12:45:34;89049.06;;;6.37
73662;BMP280;61956;52.540;13.382;2022-11-30T12:48:17;88855.25;;;6.36
73662;BMP280;61956;52.540;13.382;2022-11-30T12:51:11;89405.31;;;6.38
73662;BMP280;61956;52.540;13.382;2022-11-30T12:53:53;89409.06;;;6.37
73662;BMP280;61956;52.540;13.382;2022-11-30T12:56:36;89212.59;;;6.36
73662;BMP280;61956;52.540;13.382;2022-11-30T12:59:18;89208.00;;;6.35
73662;BMP280;61956;52.540;13.382;2022-11-30T13:02:12;88607.88;;;6.31
73662;BMP280;61956;52.540;13.382;2022-11-30T13:05:03;88274.22;;;6.29
73662;BMP280;61956;52.540;13.382;2022-11-30T13:07:41;87046.53;;;6.20
73662;BMP280;61956;52.540;13.382;2022-11-30T13:10:22;87082.28;;;6.18
73662;BMP280;61956;52.540;13.382;2022-11-30T13:12:56;86824.44;;;6.15
73662;BMP280;61956;52.540;13.382;2022-11-30T13:15:31;85875.25;;;6.08
73662;BMP280;61956;52.540;13.382;2022-11-30T13:18:02;85789.41;;;6.07
73662;BMP280;61956;52.540;13.382;2022-11-30T13:20:39;86378.78;;;6.09
73662;BMP280;61956;52.540;13.382;2022-11-30T13:23:17;85694.53;;;6.05
73662;BMP280;61956;52.540;13.382;2022-11-30T13:25:58;85268.47;;;6.01
73662;BMP280;61956;52.540;13.382;2022-11-30T13:28:45;85150.59;;;5.98
73662;BMP280;61956;52.540;13.382;2022-11-30T13:31:26;83804.34;;;5.89
73662;BMP280;61956;52.540;13.382;2022-11-30T13:34:01;83941.25;;;5.88
73662;BMP280;61956;52.540;13.382;2022-11-30T13:36:36;84203.63;;;5.89
73662;BMP280;61956;52.540;13.382;2022-11-30T13:39:20;82681.66;;;5.77
73662;BMP280;61956;52.540;13.382;2022-11-30T13:45:29;81014.78;;;5.63
73662;BMP280;61956;52.540;13.382;2022-11-30T13:48:17;80254.22;;;5.55
73662;BMP280;61956;52.540;13.382;2022-11-30T13:50:58;79862.25;;;5.52
73662;BMP280;61956;52.540;13.382;2022-11-30T13:53:30;79174.34;;;5.45
73662;BMP280;61956;52.540;13.382;2022-11-30T13:56:05;77558.16;;;5.34
73662;BMP280;61956;52.540;13.382;2022-11-30T14:05:37;70903.53;;;4.82
73662;BMP280;61956;52.540;13.382;2022-11-30T14:08:16;71157.16;;;4.79
73662;BMP280;61956;52.540;13.382;2022-11-30T14:17:15;68829.69;;;4.56
73662;BMP280;61956;52.540;13.382;2022-11-30T14:19:50;69217.88;;;4.55
73662;BMP280;61956;52.540;13.382;2022-11-30T14:22:20;66419.53;;;4.35
73662;BMP280;61956;52.540;13.382;2022-11-30T14:24:54;64332.22;;;4.19
73662;BMP280;61956;52.540;13.382;2022-11-30T14:27:24;63925.94;;;4.13
73662;BMP280;61956;52.540;13.382;2022-11-30T14:30:00;62314.63;;;3.99
73662;BMP280;61956;52.540;13.382;2022-11-30T14:32:39;63061.56;;;4.02
73662;BMP280;61956;52.540;13.382;2022-11-30T14:35:12;63931.50;;;4.03
73662;BMP280;61956;52.540;13.382;2022-11-30T14:37:45;63548.09;;;3.99
73662;BMP280;61956;52.540;13.382;2022-11-30T14:40:26;59285.22;;;3.70
73662;BMP280;61956;52.540;13.382;2022-11-30T14:42:59;58687.53;;;3.63
73662;BMP280;61956;52.540;13.382;2022-11-30T14:45:30;57407.94;;;3.53
73662;BMP280;61956;52.540;13.382;2022-11-30T14:48:06;57799.44;;;3.49
73662;BMP280;61956;52.540;13.382;2022-11-30T14:50:42;56466.41;;;3.41
73662;BMP280;61956;52.540;13.382;2022-11-30T14:53:22;55874.53;;;3.33
73662;BMP280;61956;52.540;13.382;2022-11-30T14:56:07;54797.78;;;3.24
73662;BMP280;61956;52.540;13.382;2022-11-30T14:58:51;55446.97;;;3.25
73662;BMP280;61956;52.540;13.382;2022-11-30T15:01:26;56326.78;;;3.27
73662;BMP280;61956;52.540;13.382;2022-11-30T15:04:03;57269.25;;;3.32
73662;BMP280;61956;52.540;13.382;2022-11-30T15:06:38;58019.34;;;3.35
73662;BMP280;61956;52.540;13.382;2022-11-30T15:09:14;58474.44;;;3.35